createdAt,value
2023-03-12T00:02:10.999Z,12.90
2023-03-12T00:04:52.917Z,12.20
2023-03-12T00:07:20.964Z,15.60
2023-03-12T00:09:49.313Z,13.40
2023-03-12T00:12:18.132Z,14.00
2023-03-12T00:14:48.866Z,14.10
2023-03-12T00:17:37.658Z,15.50
2023-03-12T00:20:07.227Z,15.30
2023-03-12T00:22:55.982Z,15.50
2023-03-12T00:25:24.631Z,14.20
2023-03-12T00:27:52.898Z,15.00
2023-03-12T00:30:21.477Z,18.60
2023-03-12T00:32:49.683Z,17.50
2023-03-12T00:35:33.151Z,17.30
2023-03-12T00:38:13.794Z,13.90
2023-03-12T00:41:12.934Z,19.20
2023-03-12T00:44:08.737Z,15.50
2023-03-12T00:47:02.708Z,17.30
2023-03-12T00:49:33.865Z,14.20
2023-03-12T00:52:02.768Z,14.70
2023-03-12T00:54:54.484Z,16.30
2023-03-12T00:57:25.710Z,13.50
2023-03-12T00:59:53.838Z,14.90
2023-03-12T01:02:42.999Z,15.20
2023-03-12T01:05:15.990Z,14.50
2023-03-12T01:08:04.737Z,13.10
2023-03-12T01:10:33.430Z,16.40
2023-03-12T01:13:01.599Z,16.10
2023-03-12T01:15:30.661Z,12.60
2023-03-12T01:18:01.716Z,12.80
2023-03-12T01:20:53.725Z,11.90
2023-03-12T01:23:21.916Z,12.10
2023-03-12T01:25:51.944Z,13.90
2023-03-12T01:28:20.183Z,15.60
2023-03-12T01:30:51.564Z,15.00
2023-03-12T01:33:26.432Z,15.80
2023-03-12T01:35:54.678Z,16.30
2023-03-12T01:38:35.378Z,17.00
2023-03-12T01:41:05.813Z,21.20
2023-03-12T01:43:47.390Z,18.40
2023-03-12T01:46:27.655Z,15.60
2023-03-12T01:49:29.928Z,19.70
2023-03-12T01:52:10.576Z,18.40
2023-03-12T01:55:13.079Z,16.80
2023-03-12T01:57:55.535Z,12.80
2023-03-12T02:00:31.716Z,11.40
2023-03-12T02:03:18.031Z,12.00
2023-03-12T02:06:14.673Z,10.60
2023-03-12T02:08:47.655Z,22.70
2023-03-12T02:11:19.445Z,16.20
2023-03-12T02:13:53.019Z,16.60
2023-03-12T02:16:48.135Z,13.00
2023-03-12T02:20:22.212Z,10.00
2023-03-12T02:23:22.736Z,11.70
2023-03-12T02:25:56.566Z,12.20
2023-03-12T02:28:29.002Z,12.10
2023-03-12T02:31:06.922Z,12.60
2023-03-12T02:33:35.571Z,11.60
2023-03-12T02:36:18.994Z,10.60
2023-03-12T02:38:56.263Z,9.30
2023-03-12T02:41:58.637Z,10.60
2023-03-12T02:44:53.673Z,10.20
2023-03-12T02:47:25.196Z,10.40
2023-03-12T02:49:59.208Z,11.80
2023-03-12T02:52:35.676Z,11.40
2023-03-12T02:55:08.813Z,10.80
2023-03-12T02:57:44.404Z,12.20
2023-03-12T03:00:38.531Z,12.90
2023-03-12T03:03:26.409Z,11.80
2023-03-12T03:06:15.293Z,12.40
2023-03-12T03:09:09.932Z,11.80
2023-03-12T03:11:43.404Z,12.70
2023-03-12T03:14:11.896Z,11.90
2023-03-12T03:16:40.776Z,12.50
2023-03-12T03:19:14.132Z,12.00
2023-03-12T03:22:14.129Z,12.30
2023-03-12T03:24:45.458Z,11.70
2023-03-12T03:27:16.749Z,13.30
2023-03-12T03:29:52.698Z,12.90
2023-03-12T03:32:43.925Z,12.00
2023-03-12T03:35:22.837Z,12.00
2023-03-12T03:37:51.553Z,13.00
2023-03-12T03:40:28.668Z,12.70
2023-03-12T03:43:38.704Z,12.90
2023-03-12T03:46:08.250Z,12.50
2023-03-12T03:48:59.154Z,12.40
2023-03-12T03:51:52.413Z,13.50
2023-03-12T03:54:28.228Z,12.50
2023-03-12T03:57:39.974Z,12.70
2023-03-12T04:00:36.207Z,13.10
2023-03-12T04:03:08.633Z,13.10
2023-03-12T04:06:13.070Z,12.70
2023-03-12T04:08:57.432Z,10.80
2023-03-12T04:11:27.986Z,10.50
2023-03-12T04:13:58.729Z,10.40
2023-03-12T04:16:48.869Z,11.40
2023-03-12T04:19:46.021Z,10.40
2023-03-12T04:22:14.794Z,10.80
2023-03-12T04:25:14.388Z,10.70
2023-03-12T04:27:43.108Z,10.90
2023-03-12T04:30:54.753Z,13.10
2023-03-12T04:33:57.129Z,9.70
2023-03-12T04:36:52.348Z,10.80
2023-03-12T04:40:05.280Z,10.70
2023-03-12T04:42:50.545Z,10.40
2023-03-12T04:45:20.091Z,9.70
2023-03-12T04:47:51.978Z,9.00
2023-03-12T04:50:47.818Z,8.70
2023-03-12T04:53:19.927Z,7.40
2023-03-12T04:56:01.302Z,7.90
2023-03-12T04:58:50.266Z,7.40
2023-03-12T05:01:38.885Z,7.30
2023-03-12T05:04:50.300Z,10.50
2023-03-12T05:07:38.726Z,10.60
2023-03-12T05:10:07.825Z,8.50
2023-03-12T05:12:36.113Z,9.00
2023-03-12T05:15:07.434Z,10.20
2023-03-12T05:17:56.129Z,7.60
2023-03-12T05:20:24.789Z,7.70
2023-03-12T05:22:53.590Z,7.90
2023-03-12T05:25:22.513Z,10.60
2023-03-12T05:28:04.423Z,10.70
2023-03-12T05:30:56.344Z,9.50
2023-03-12T05:33:26.305Z,12.60
2023-03-12T05:35:54.788Z,11.70
2023-03-12T05:38:26.940Z,10.40
2023-03-12T05:40:59.232Z,10.30
2023-03-12T05:43:29.175Z,11.30
2023-03-12T05:46:05.069Z,11.00
2023-03-12T05:48:36.815Z,11.00
2023-03-12T05:51:05.829Z,9.50
2023-03-12T05:53:34.645Z,9.90
2023-03-12T05:56:08.896Z,9.70
2023-03-12T05:58:38.217Z,9.90
2023-03-12T06:01:33.856Z,8.80
2023-03-12T06:04:07.255Z,9.10
2023-03-12T06:06:56.245Z,8.70
2023-03-12T06:09:24.618Z,10.00
2023-03-12T06:11:57.764Z,9.50
2023-03-12T06:14:25.839Z,9.50
2023-03-12T06:16:58.667Z,9.00
2023-03-12T06:19:26.733Z,9.50
2023-03-12T06:22:00.833Z,8.10
2023-03-12T06:24:29.316Z,8.40
2023-03-12T06:27:20.453Z,9.60
2023-03-12T06:29:48.900Z,7.30
2023-03-12T06:32:22.180Z,7.30
2023-03-12T06:34:50.720Z,6.90
2023-03-12T06:37:29.641Z,7.00
2023-03-12T06:39:58.308Z,6.20
2023-03-12T06:42:40.554Z,5.70
2023-03-12T06:45:12.274Z,6.00
2023-03-12T06:47:40.827Z,6.10
2023-03-12T06:50:10.437Z,6.10
2023-03-12T06:52:40.833Z,5.00
2023-03-12T06:55:12.405Z,6.00
2023-03-12T06:58:04.742Z,5.40
2023-03-12T07:00:39.161Z,5.70
2023-03-12T07:03:11.534Z,5.40
2023-03-12T07:06:19.510Z,5.30
2023-03-12T07:08:49.053Z,5.00
2023-03-12T07:11:27.931Z,6.20
2023-03-12T07:14:03.651Z,4.30
2023-03-12T07:16:32.330Z,4.60
2023-03-12T07:19:24.073Z,4.50
2023-03-12T07:21:58.077Z,5.30
2023-03-12T07:24:39.637Z,5.30
2023-03-12T07:27:11.355Z,4.50
2023-03-12T07:29:58.635Z,4.30
2023-03-12T07:33:13.261Z,4.20
2023-03-12T07:36:18.720Z,3.90
2023-03-12T07:39:08.213Z,4.10
2023-03-12T07:41:39.461Z,3.80
2023-03-12T07:45:01.119Z,4.10
2023-03-12T07:47:51.714Z,4.10
2023-03-12T07:51:03.086Z,3.90
2023-03-12T07:54:12.400Z,4.00
2023-03-12T07:56:41.022Z,4.80
2023-03-12T07:59:09.747Z,4.30
2023-03-12T08:01:43.303Z,4.40
2023-03-12T08:04:43.480Z,4.20
2023-03-12T08:07:47.758Z,4.00
2023-03-12T08:11:28.467Z,4.90
2023-03-12T08:14:12.878Z,4.40
2023-03-12T08:16:41.430Z,4.60
2023-03-12T08:19:33.690Z,4.50
2023-03-12T08:22:24.752Z,5.10
2023-03-12T08:25:05.087Z,5.60
2023-03-12T08:27:43.423Z,5.40
2023-03-12T08:30:30.470Z,4.80
2023-03-12T08:33:15.399Z,5.90
2023-03-12T08:36:06.676Z,6.20
2023-03-12T08:39:25.441Z,6.10
2023-03-12T08:42:19.183Z,5.40
2023-03-12T08:44:53.877Z,5.50
2023-03-12T08:48:06.402Z,5.10
2023-03-12T08:51:25.626Z,4.40
2023-03-12T08:54:36.917Z,4.70
2023-03-12T08:57:08.220Z,3.30
2023-03-12T08:59:50.767Z,2.70
2023-03-12T09:02:52.519Z,3.60
2023-03-12T09:05:25.541Z,3.00
2023-03-12T09:08:37.279Z,4.30
2023-03-12T09:12:31.145Z,3.50
2023-03-12T09:16:10.262Z,3.20
2023-03-12T09:19:22.740Z,2.60
2023-03-12T09:21:59.280Z,2.70
2023-03-12T09:24:45.650Z,2.30
2023-03-12T09:27:40.805Z,2.70
2023-03-12T09:30:27.319Z,3.00
2023-03-12T09:33:16.056Z,2.80
2023-03-12T09:36:16.142Z,1.90
2023-03-12T09:38:47.488Z,2.10
2023-03-12T09:41:28.623Z,2.40
2023-03-12T09:44:32.865Z,3.60
2023-03-12T09:47:10.779Z,2.10
2023-03-12T09:50:26.144Z,2.00
2023-03-12T09:53:47.930Z,2.00
2023-03-12T09:56:22.891Z,2.00
2023-03-12T09:58:55.835Z,1.90
2023-03-12T10:01:33.718Z,2.00
2023-03-12T10:04:31.011Z,3.10
2023-03-12T10:07:28.001Z,1.90
2023-03-12T10:10:50.689Z,2.40
2023-03-12T10:14:24.819Z,2.10
2023-03-12T10:17:39.088Z,2.20
2023-03-12T10:20:35.340Z,2.00
2023-03-12T10:24:14.277Z,2.20
2023-03-12T10:26:57.758Z,2.00
2023-03-12T10:29:53.226Z,2.30
2023-03-12T10:32:44.513Z,3.00
2023-03-12T10:35:24.558Z,3.60
2023-03-12T10:37:59.589Z,3.30
2023-03-12T10:40:30.227Z,3.10
2023-03-12T10:43:19.026Z,3.80
2023-03-12T10:45:59.544Z,3.30
2023-03-12T10:48:33.406Z,2.90
2023-03-12T10:51:03.772Z,2.20
2023-03-12T10:54:19.630Z,2.20
2023-03-12T10:57:06.095Z,3.10
2023-03-12T10:59:37.196Z,3.60
2023-03-12T11:03:03.806Z,2.80
2023-03-12T11:05:37.531Z,3.30
2023-03-12T11:08:32.306Z,2.60
2023-03-12T11:11:13.617Z,2.00
2023-03-12T11:13:57.182Z,2.30
2023-03-12T11:16:32.121Z,2.80
2023-03-12T11:19:42.354Z,2.50
2023-03-12T11:22:31.842Z,2.50
2023-03-12T11:25:27.388Z,2.10
2023-03-12T11:28:16.138Z,3.30
2023-03-12T11:31:07.488Z,2.40
2023-03-12T11:34:57.715Z,3.00
2023-03-12T11:37:46.940Z,2.30
2023-03-12T11:40:59.538Z,2.40
2023-03-12T11:44:23.283Z,2.30
2023-03-12T11:47:02.309Z,2.40
2023-03-12T11:50:02.198Z,2.50
2023-03-12T11:53:18.848Z,4.20
2023-03-12T11:56:03.431Z,2.50
2023-03-12T11:58:44.018Z,2.90
2023-03-12T12:01:44.573Z,2.40
2023-03-12T12:21:39.697Z,2.30
2023-03-12T12:24:29.441Z,2.90
2023-03-12T12:27:30.137Z,2.80
2023-03-12T12:30:05.415Z,2.80
2023-03-12T12:33:15.631Z,2.60
2023-03-12T12:36:04.454Z,2.00
2023-03-12T12:39:24.224Z,2.30
2023-03-12T12:42:39.214Z,2.40
2023-03-12T12:45:18.323Z,2.00
2023-03-12T12:48:12.226Z,2.10
2023-03-12T12:50:47.962Z,1.90
2023-03-12T12:54:02.967Z,1.70
2023-03-12T12:56:48.375Z,2.00
2023-03-12T12:59:28.525Z,1.70
2023-03-12T13:02:37.049Z,2.30
2023-03-12T13:05:56.285Z,2.30
2023-03-12T13:12:14.775Z,1.90
2023-03-12T13:14:48.267Z,3.30
2023-03-12T13:17:55.316Z,2.60
2023-03-12T13:20:57.009Z,2.20
2023-03-12T13:23:33.357Z,2.70
2023-03-12T13:26:43.384Z,2.90
2023-03-12T13:29:33.297Z,3.60
2023-03-12T13:32:09.199Z,2.80
2023-03-12T13:34:46.965Z,3.60
2023-03-12T13:38:04.584Z,3.30
2023-03-12T13:41:40.389Z,3.00
2023-03-12T13:44:47.556Z,3.70
2023-03-12T13:47:55.034Z,3.50
2023-03-12T13:51:09.723Z,3.60
2023-03-12T13:54:14.654Z,3.00
2023-03-12T13:57:05.486Z,2.70
2023-03-12T14:00:02.810Z,2.70
2023-03-12T14:02:42.917Z,2.90
2023-03-12T14:05:14.982Z,2.80
2023-03-12T14:07:58.339Z,3.00
2023-03-12T14:11:03.531Z,3.10
2023-03-12T14:13:43.711Z,3.30
2023-03-12T14:16:30.868Z,3.10
2023-03-12T14:18:59.825Z,3.50
2023-03-12T14:24:08.665Z,2.60
2023-03-12T14:27:07.453Z,2.80
2023-03-12T14:29:56.887Z,3.60
2023-03-12T14:35:29.676Z,3.20
2023-03-12T14:38:22.225Z,3.50
2023-03-12T14:41:21.607Z,3.60
2023-03-12T14:46:54.746Z,3.30
2023-03-12T14:50:02.659Z,4.30
2023-03-12T14:52:48.146Z,3.80
2023-03-12T14:55:50.312Z,3.90
2023-03-12T14:58:43.115Z,4.40
2023-03-12T15:01:34.604Z,4.30
2023-03-12T15:04:34.222Z,4.00
2023-03-12T15:07:17.879Z,3.40
2023-03-12T15:10:17.504Z,2.70
2023-03-12T15:13:47.539Z,3.10
2023-03-12T15:16:40.060Z,3.40
2023-03-12T15:19:28.144Z,3.40
2023-03-12T15:21:57.334Z,4.40
2023-03-12T15:24:45.756Z,4.50
2023-03-12T15:27:34.825Z,4.20
2023-03-12T15:30:46.754Z,5.00
2023-03-12T15:33:19.155Z,4.90
2023-03-12T15:36:39.296Z,4.10
2023-03-12T15:39:48.758Z,3.90
2023-03-12T15:42:24.852Z,3.60
2023-03-12T15:45:25.726Z,3.90
2023-03-12T15:47:57.438Z,5.50
2023-03-12T15:50:33.817Z,6.40
2023-03-12T15:53:25.976Z,6.30
2023-03-12T15:56:23.707Z,6.20
2023-03-12T15:59:26.112Z,5.10
2023-03-12T16:02:34.297Z,5.60
2023-03-12T16:05:10.593Z,5.10
2023-03-12T16:07:41.352Z,4.90
2023-03-12T16:10:37.700Z,6.30
2023-03-12T16:13:16.755Z,9.40
2023-03-12T16:15:47.760Z,8.80
2023-03-12T16:18:38.017Z,8.40
2023-03-12T16:21:06.666Z,8.90
2023-03-12T16:23:37.999Z,6.20
2023-03-12T16:26:13.841Z,5.80
2023-03-12T16:28:45.701Z,10.30
2023-03-12T16:31:19.780Z,26.00
2023-03-12T16:33:50.789Z,13.20
2023-03-12T16:36:19.272Z,8.50
2023-03-12T16:38:49.718Z,9.20
2023-03-12T16:41:19.857Z,6.70
2023-03-12T16:43:51.514Z,13.00
2023-03-12T16:46:24.295Z,11.30
2023-03-12T16:49:16.977Z,19.70
2023-03-12T16:51:49.674Z,6.90
2023-03-12T16:54:17.784Z,9.00
2023-03-12T16:57:09.118Z,7.80
2023-03-12T16:59:44.597Z,15.30
2023-03-12T17:02:22.148Z,8.70
2023-03-12T17:04:51.193Z,4.50
2023-03-12T17:07:30.031Z,5.80
2023-03-12T17:09:58.389Z,6.10
2023-03-12T17:12:38.934Z,11.10
2023-03-12T17:15:33.558Z,19.90
2023-03-12T17:18:04.869Z,7.00
2023-03-12T17:20:36.194Z,9.50
2023-03-12T17:23:06.040Z,22.60
2023-03-12T17:25:41.154Z,15.50
2023-03-12T17:28:15.606Z,12.40
2023-03-12T17:30:54.577Z,16.50
2023-03-12T17:33:25.916Z,7.90
2023-03-12T17:36:20.572Z,9.80
2023-03-12T17:38:53.733Z,7.30
2023-03-12T17:41:26.773Z,5.80
2023-03-12T17:44:18.802Z,8.20
2023-03-12T17:47:07.023Z,17.90
2023-03-12T17:49:38.951Z,21.60
2023-03-12T17:52:07.938Z,21.00
2023-03-12T17:54:42.264Z,33.80
2023-03-12T17:57:11.077Z,28.10
2023-03-12T17:59:42.344Z,14.50
2023-03-12T18:02:18.704Z,8.00
2023-03-12T18:04:50.598Z,13.60
2023-03-12T18:07:21.821Z,10.20
2023-03-12T18:09:49.789Z,13.80
2023-03-12T18:12:18.023Z,18.00
2023-03-12T18:14:45.893Z,16.70
2023-03-12T18:17:13.764Z,16.40
2023-03-12T18:19:41.998Z,18.00
2023-03-12T18:22:14.218Z,11.60
2023-03-12T18:24:42.571Z,17.20
2023-03-12T18:27:10.477Z,8.40
2023-03-12T18:29:40.613Z,13.70
2023-03-12T18:34:42.392Z,10.60
2023-03-12T18:37:13.531Z,10.40
2023-03-12T18:39:54.646Z,12.30
2023-03-12T18:42:45.070Z,12.90
2023-03-12T18:45:16.572Z,8.60
2023-03-12T18:47:50.864Z,13.00
2023-03-12T18:50:21.916Z,9.40
2023-03-12T18:53:10.179Z,11.10
2023-03-12T18:55:38.607Z,11.80
2023-03-12T18:58:09.556Z,9.20
2023-03-12T19:00:38.013Z,11.50
2023-03-12T19:03:05.977Z,9.40
2023-03-12T19:05:34.159Z,14.00
2023-03-12T19:08:08.666Z,9.50
2023-03-12T19:10:54.945Z,9.20
2023-03-12T19:13:52.963Z,5.90
2023-03-12T19:16:24.067Z,4.90
2023-03-12T19:19:09.577Z,5.40
2023-03-12T19:21:38.558Z,4.80
2023-03-12T19:24:06.651Z,5.30
2023-03-12T19:26:37.402Z,4.60
2023-03-12T19:30:06.521Z,4.80
2023-03-12T19:32:57.977Z,5.00
2023-03-12T19:35:26.988Z,8.80
2023-03-12T19:37:56.055Z,6.80
2023-03-12T19:40:30.195Z,4.30
2023-03-12T19:42:59.078Z,5.60
2023-03-12T19:45:33.872Z,4.10
2023-03-12T19:48:11.665Z,5.10
2023-03-12T19:50:40.764Z,10.70
2023-03-12T19:53:12.331Z,8.50
2023-03-12T19:55:41.150Z,6.60
2023-03-12T19:58:09.332Z,6.40
2023-03-12T20:00:37.378Z,5.70
2023-03-12T20:03:09.758Z,6.40
2023-03-12T20:05:38.245Z,5.30
2023-03-12T20:08:09.958Z,4.70
2023-03-12T20:10:59.481Z,5.70
2023-03-12T20:13:35.761Z,4.90
2023-03-12T20:16:05.225Z,4.90
2023-03-12T20:18:34.173Z,5.80
2023-03-12T20:21:03.095Z,5.40
2023-03-12T20:23:31.542Z,6.00
2023-03-12T20:25:59.770Z,6.00
2023-03-12T20:28:28.252Z,6.20
2023-03-12T20:30:57.714Z,5.70
2023-03-12T20:33:25.997Z,5.00
2023-03-12T20:35:56.255Z,5.20
2023-03-12T20:40:55.229Z,4.50
2023-03-12T20:43:23.525Z,4.50
2023-03-12T20:45:54.330Z,4.50
2023-03-12T20:48:25.050Z,3.90
2023-03-12T20:50:55.753Z,3.70
2023-03-12T20:53:30.651Z,3.80
2023-03-12T20:56:01.571Z,3.60
2023-03-12T20:58:50.170Z,5.00
2023-03-12T21:01:18.491Z,3.70
2023-03-12T21:03:56.316Z,3.40
2023-03-12T21:06:33.605Z,3.50
2023-03-12T21:09:23.252Z,3.80
2023-03-12T21:11:51.323Z,3.50
2023-03-12T21:14:30.242Z,4.50
2023-03-12T21:17:01.184Z,3.40
2023-03-12T21:19:43.058Z,3.30
2023-03-12T21:22:21.770Z,3.20
2023-03-12T21:24:50.686Z,3.40
2023-03-12T21:27:18.958Z,4.10
2023-03-12T21:30:07.712Z,3.50
2023-03-12T21:32:36.253Z,3.10
2023-03-12T21:35:05.363Z,3.50
2023-03-12T21:37:37.356Z,3.50
2023-03-12T21:40:36.826Z,3.50
2023-03-12T21:43:14.211Z,3.40
2023-03-12T21:46:26.820Z,3.90
2023-03-12T21:49:48.166Z,3.50
2023-03-12T21:52:18.690Z,3.10
2023-03-12T21:54:57.343Z,3.10
2023-03-12T21:57:57.613Z,4.10
2023-03-12T22:00:26.131Z,3.30
2023-03-12T22:02:54.509Z,3.60
2023-03-12T22:05:26.481Z,3.70
2023-03-12T22:07:57.390Z,3.90
2023-03-12T22:10:36.280Z,2.90
2023-03-12T22:13:09.887Z,3.50
2023-03-12T22:15:48.221Z,3.30
2023-03-12T22:18:21.514Z,3.20
2023-03-12T22:21:43.064Z,3.30
2023-03-12T22:24:25.466Z,3.90
2023-03-12T22:27:09.581Z,2.90
2023-03-12T22:29:37.739Z,3.40
2023-03-12T22:32:43.145Z,3.40
2023-03-12T22:35:15.115Z,3.80
2023-03-12T22:38:05.929Z,3.80
2023-03-12T22:40:50.156Z,3.50
2023-03-12T22:43:39.197Z,3.00
2023-03-12T22:46:07.463Z,3.40
2023-03-12T22:49:06.679Z,3.70
2023-03-12T22:52:18.684Z,3.10
2023-03-12T22:54:46.867Z,3.00
2023-03-12T22:58:16.088Z,3.40
2023-03-12T23:01:01.602Z,3.00
2023-03-12T23:03:34.725Z,3.00
2023-03-12T23:06:50.724Z,3.10
2023-03-12T23:09:39.586Z,3.90
2023-03-12T23:12:11.803Z,3.60
2023-03-12T23:15:43.571Z,3.30
2023-03-12T23:18:44.486Z,3.30
2023-03-12T23:21:59.110Z,3.20
2023-03-12T23:25:10.123Z,3.20
2023-03-12T23:28:18.755Z,3.40
2023-03-12T23:31:37.599Z,3.40
2023-03-12T23:34:09.931Z,3.40
2023-03-12T23:36:57.040Z,3.40
2023-03-12T23:39:53.512Z,3.70
2023-03-12T23:42:54.213Z,3.70
2023-03-12T23:45:34.447Z,3.70
2023-03-12T23:48:40.576Z,4.30
2023-03-12T23:51:12.615Z,3.50
2023-03-12T23:54:22.769Z,3.20
